Aviation Digital Data Service (ADDS)

Output produced by METARs form (0243 UTC 24 July 2017)
found at http://www.aviationweather.gov/adds/metars/
 
FKKD 240200Z 04002KT 4000 -RADZ SCT006 BKN010 FEW013CB 24/24 Q1014 TEMPO 2000 RADZ
TAF FKKD 232300Z 2400/2506 VRB04KT 9999 SCT003 BKN012 FEW015CB 
     TEMPO 2402/2410 3000 RADZ
       
FKKR 240000Z 32012KT 9999 TS FEW016 FEW020CB 27/23 Q1013
FKYS 240200Z 24003KT 210V290 7000 -DZ SCT003 BKN006 20/20 Q1018 TEMPO 4000 DZ
TAF FKYS 232300Z 2400/2500 25003KT 9999 BKN006 
     PROB40 
     TEMPO 2405/2408 4000 DZ 
     BECMG 2408/2410 BKN016 
     BECMG 2420/2422 BKN006